Time;durP1;ratioP1;P1;durP2;ratioP2;P2;SDS_P1;SDS_P2;PMS_P1;PMS_P2;Temp;Humidity;BMP_temperature;BMP_pressure;BME280_temperature;BME280_humidity;BME280_pressure;Samples;Min_cycle;Max_cycle;Signal;HPM_P1;HPM_P2
2022/09/26 00:02:01;;;;;;;0.03;0.03;;;;;;;5.35;100.00;96064.97;4966099;28;20443;-76
2022/09/26 00:04:47;;;;;;;0.10;0.10;;;;;;;5.38;100.00;96060.03;4968719;28;20104;-76
2022/09/26 00:07:32;;;;;;;0.05;0.05;;;;;;;5.37;100.00;96065.53;4965133;28;20041;-75
2022/09/26 00:10:19;;;;;;;0.10;0.10;;;;;;;5.34;100.00;96055.38;4965693;28;20324;-76
2022/09/26 00:13:05;;;;;;;0.10;0.10;;;;;;;5.38;100.00;96060.03;4968219;28;20276;-75
2022/09/26 00:15:51;;;;;;;0.10;0.10;;;;;;;5.43;100.00;96051.38;4969681;28;20042;-72
2022/09/26 00:18:38;;;;;;;0.10;0.10;;;;;;;5.54;100.00;96050.63;4967477;28;20039;-73
2022/09/26 00:21:26;;;;;;;0.30;0.10;;;;;;;5.63;100.00;96049.25;4965281;28;20074;-72
2022/09/26 00:24:12;;;;;;;0.10;0.10;;;;;;;5.67;100.00;96061.03;4951449;28;20045;-72
2022/09/26 00:26:57;;;;;;;0.10;0.10;;;;;;;5.66;100.00;96058.59;4965750;28;20160;-73
2022/09/26 00:29:43;;;;;;;0.10;0.10;;;;;;;5.60;100.00;96041.72;4969436;28;20176;-73
2022/09/26 00:32:30;;;;;;;0.08;0.08;;;;;;;5.57;100.00;96048.31;4967132;28;20042;-72
2022/09/26 00:35:16;;;;;;;0.20;0.10;;;;;;;5.54;100.00;96046.13;4965786;28;20038;-74
2022/09/26 00:38:03;;;;;;;0.10;0.10;;;;;;;5.54;100.00;96034.69;4966659;28;20137;-75
2022/09/26 00:40:49;;;;;;;0.10;0.10;;;;;;;5.56;100.00;96035.28;4967609;28;20038;-74
2022/09/26 00:43:42;;;;;;;0.10;0.10;;;;;;;5.58;100.00;96030.53;4970597;28;20053;-73
2022/09/26 00:46:37;;;;;;;0.10;0.10;;;;;;;5.64;100.00;96026.97;4966180;28;20042;-74
2022/09/26 00:49:33;;;;;;;0.30;0.10;;;;;;;5.68;100.00;96020.19;4957330;28;20332;-74
2022/09/26 00:52:29;;;;;;;0.10;0.10;;;;;;;5.63;100.00;96014.75;4966740;28;20275;-74
2022/09/26 00:55:20;;;;;;;0.10;0.10;;;;;;;5.73;100.00;96012.34;4966785;28;20038;-74
2022/09/26 00:58:11;;;;;;;0.10;0.10;;;;;;;5.74;100.00;96007.84;4954646;28;20053;-74
2022/09/26 01:00:59;;;;;;;0.10;0.10;;;;;;;5.69;100.00;96000.56;4965138;28;20145;-74
2022/09/26 01:03:47;;;;;;;0.10;0.10;;;;;;;5.59;100.00;95998.44;4965820;28;20058;-74
2022/09/26 01:06:34;;;;;;;0.10;0.10;;;;;;;5.57;100.00;95995.22;4955595;28;20053;-74
2022/09/26 01:09:20;;;;;;;0.10;0.10;;;;;;;5.62;100.00;95994.56;4949741;28;20050;-74
2022/09/26 01:12:09;;;;;;;0.00;0.00;;;;;;;5.70;100.00;95983.59;4966981;28;20074;-74
2022/09/26 01:14:56;;;;;;;0.10;0.10;;;;;;;5.82;100.00;95984.41;4967608;28;20069;-75
2022/09/26 01:17:56;;;;;;;0.10;0.10;;;;;;;5.98;100.00;95976.81;4962598;28;20465;-76
2022/09/26 01:20:55;;;;;;;0.13;0.10;;;;;;;6.11;100.00;95963.31;4955198;28;20038;-75
2022/09/26 01:23:43;;;;;;;0.10;0.10;;;;;;;6.17;100.00;95959.75;4955408;28;20858;-76
2022/09/26 01:26:49;;;;;;;0.10;0.10;;;;;;;6.24;100.00;95959.63;4964639;28;20046;-76
2022/09/26 01:30:09;;;;;;;0.10;0.10;;;;;;;6.28;100.00;95961.56;4967096;28;20127;-76
2022/09/26 01:33:25;;;;;;;0.10;0.10;;;;;;;6.23;100.00;95958.81;4953418;28;20240;-75
2022/09/26 01:36:17;;;;;;;0.10;0.10;;;;;;;6.17;100.00;95959.75;4965094;28;20066;-76
2022/09/26 01:39:09;;;;;;;0.10;0.10;;;;;;;6.17;100.00;95948.31;4966089;28;20089;-76
2022/09/26 01:42:17;;;;;;;;;;;;;;;6.09;100.00;95952.94;4952027;28;20500;-75
2022/09/26 01:45:13;;;;;;;0.10;0.10;;;;;;;5.94;100.00;95944.63;4964830;28;20000;-76
2022/09/26 01:48:15;;;;;;;0.10;0.10;;;;;;;6.05;100.00;95945.66;4951821;28;20063;-76
2022/09/26 01:51:11;;;;;;;0.10;0.10;;;;;;;6.24;100.00;95946.34;4961549;28;20556;-76
2022/09/26 01:54:21;;;;;;;0.20;0.10;;;;;;;6.40;100.00;95943.75;4956534;28;20070;-76
2022/09/26 01:57:16;;;;;;;0.10;0.10;;;;;;;6.46;100.00;95931.41;4955733;28;20263;-76
2022/09/26 02:00:06;;;;;;;0.10;0.10;;;;;;;6.56;100.00;95931.59;4952080;28;20113;-74
2022/09/26 02:03:03;;;;;;;0.10;0.10;;;;;;;6.65;100.00;95932.84;4965101;28;20086;-75
2022/09/26 02:06:14;;;;;;;0.10;0.10;;;;;;;6.63;100.00;95929.59;4955965;28;20393;-74
2022/09/26 02:09:19;;;;;;;0.10;0.10;;;;;;;6.58;100.00;95924.19;4956854;28;20347;-75
2022/09/26 02:12:08;;;;;;;0.10;0.10;;;;;;;6.69;100.00;95927.84;4968267;28;20046;-74
2022/09/26 02:14:59;;;;;;;0.10;0.10;;;;;;;6.72;100.00;95914.09;4966598;28;20419;-75
2022/09/26 02:17:52;;;;;;;0.40;0.20;;;;;;;6.70;100.00;95911.66;4952446;28;20039;-75
2022/09/26 02:20:41;;;;;;;0.10;0.10;;;;;;;6.69;100.00;95911.88;4948670;28;20042;-74
2022/09/26 02:23:28;;;;;;;0.10;0.10;;;;;;;6.73;100.00;95915.69;4966113;28;20181;-75
2022/09/26 02:26:14;;;;;;;0.20;0.10;;;;;;;6.69;100.00;95904.75;4948140;28;20121;-74
2022/09/26 02:29:00;;;;;;;0.10;0.10;;;;;;;6.77;100.00;95903.56;4946449;28;20853;-75
2022/09/26 02:31:56;;;;;;;0.10;0.10;;;;;;;6.85;100.00;95900.50;4953290;28;20362;-75
2022/09/26 02:34:45;;;;;;;0.30;0.20;;;;;;;6.83;100.00;95894.59;4954629;28;20097;-75
2022/09/26 02:37:31;;;;;;;0.10;0.10;;;;;;;6.77;100.00;95886.75;4954550;28;20785;-74
2022/09/26 02:40:19;;;;;;;0.15;0.10;;;;;;;6.85;100.00;95889.06;4963747;28;20117;-75
2022/09/26 02:43:23;;;;;;;0.10;0.10;;;;;;;6.87;100.00;95886.97;4954823;28;20371;-75
2022/09/26 02:46:25;;;;;;;0.10;0.10;;;;;;;6.88;100.00;95876.09;4948185;28;20170;-75
2022/09/26 02:49:44;;;;;;;0.10;0.10;;;;;;;6.97;100.00;95876.50;4955130;28;20471;-74
2022/09/26 02:52:43;;;;;;;0.10;0.10;;;;;;;6.97;100.00;95869.31;4967409;28;20042;-74
2022/09/26 02:56:02;;;;;;;0.10;0.10;;;;;;;6.97;100.00;95866.66;4952010;28;20383;-75
2022/09/26 02:58:58;;;;;;;0.10;0.10;;;;;;;6.96;100.00;95857.06;4951072;28;20765;-75
2022/09/26 03:01:54;;;;;;;0.10;0.10;;;;;;;6.92;100.00;95855.94;4952489;28;20230;-75
2022/09/26 03:05:08;;;;;;;0.10;0.10;;;;;;;6.95;100.00;95857.31;4960699;28;20042;-75
2022/09/26 03:08:03;;;;;;;0.10;0.10;;;;;;;6.90;100.00;95846.59;4968052;28;20050;-75
2022/09/26 03:10:51;;;;;;;0.20;0.20;;;;;;;6.92;100.00;95847.94;4968058;28;20039;-74
2022/09/26 03:13:39;;;;;;;0.10;0.10;;;;;;;6.94;100.00;95845.06;4957573;28;20451;-74
2022/09/26 03:16:30;;;;;;;0.15;0.13;;;;;;;6.97;100.00;95842.72;4957076;28;20133;-75
2022/09/26 03:19:29;;;;;;;0.10;0.10;;;;;;;7.02;100.00;95835.91;4967627;28;20553;-74
2022/09/26 03:22:15;;;;;;;0.10;0.10;;;;;;;7.01;100.00;95832.44;4954047;28;20813;-75
2022/09/26 03:25:05;;;;;;;0.10;0.10;;;;;;;7.08;100.00;95832.25;4968938;28;20261;-75
2022/09/26 03:28:01;;;;;;;0.10;0.10;;;;;;;7.06;100.00;95823.72;4962082;28;20051;-74
2022/09/26 03:30:47;;;;;;;0.10;0.10;;;;;;;7.04;100.00;95826.63;4954529;28;20049;-74
2022/09/26 03:33:53;;;;;;;0.10;0.10;;;;;;;6.99;100.00;95822.00;4969359;28;20161;-74
2022/09/26 03:36:39;;;;;;;0.10;0.10;;;;;;;6.99;100.00;95811.38;4969824;28;20181;-74
2022/09/26 03:39:27;;;;;;;0.10;0.10;;;;;;;6.96;100.00;95803.06;4970555;28;20042;-74
2022/09/26 03:42:20;;;;;;;0.10;0.10;;;;;;;6.96;100.00;95803.88;4953504;28;20296;-74
2022/09/26 03:45:09;;;;;;;0.10;0.10;;;;;;;6.97;100.00;95799.38;4956979;28;20038;-73
2022/09/26 03:48:15;;;;;;;0.10;0.10;;;;;;;6.91;100.00;95787.81;4965226;28;20129;-73
2022/09/26 03:51:08;;;;;;;0.10;0.10;;;;;;;6.97;100.00;95791.38;4953668;28;20035;-74
2022/09/26 03:53:53;;;;;;;0.10;0.10;;;;;;;7.02;100.00;95785.34;4958331;28;20671;-75
2022/09/26 03:56:42;;;;;;;0.10;0.10;;;;;;;7.03;100.00;95778.97;4968944;28;20755;-75
2022/09/26 03:59:28;;;;;;;0.20;0.20;;;;;;;7.01;100.00;95781.09;4953833;28;20046;-75
2022/09/26 04:02:15;;;;;;;0.13;0.10;;;;;;;7.08;100.00;95776.38;4953281;28;20133;-74
2022/09/26 04:05:05;;;;;;;0.20;0.10;;;;;;;7.05;100.00;95774.22;4957540;28;20089;-74
2022/09/26 04:07:51;;;;;;;0.10;0.10;;;;;;;7.01;100.00;95757.13;4954693;28;20371;-75
2022/09/26 04:10:37;;;;;;;0.20;0.10;;;;;;;7.06;100.00;95762.50;4956217;28;20046;-75
2022/09/26 04:13:25;;;;;;;0.10;0.10;;;;;;;7.10;100.00;95755.69;4956844;28;20062;-75
2022/09/26 04:16:11;;;;;;;0.10;0.10;;;;;;;7.12;100.00;95757.03;4956353;28;20142;-75
2022/09/26 04:18:58;;;;;;;0.10;0.10;;;;;;;7.15;100.00;95753.06;4961198;28;20114;-75
2022/09/26 04:21:46;;;;;;;0.10;0.10;;;;;;;7.14;100.00;95746.16;4971580;28;20092;-75
2022/09/26 04:24:33;;;;;;;0.10;0.10;;;;;;;7.11;100.00;95738.66;4943988;28;20372;-74
2022/09/26 04:27:20;;;;;;;0.10;0.10;;;;;;;7.04;100.00;95735.34;4964835;28;20042;-75
2022/09/26 04:30:06;;;;;;;0.10;0.10;;;;;;;6.92;100.00;95730.13;4971960;28;20108;-75
2022/09/26 04:33:13;;;;;;;0.10;0.10;;;;;;;6.94;100.00;95726.19;4953413;28;20237;-76
2022/09/26 04:36:09;;;;;;;0.10;0.10;;;;;;;6.81;100.00;95729.16;4967514;28;20049;-75
2022/09/26 04:38:59;;;;;;;0.10;0.10;;;;;;;6.73;100.00;95726.91;4959822;28;20609;-75
2022/09/26 04:41:45;;;;;;;0.10;0.10;;;;;;;6.66;100.00;95721.75;4955112;28;20129;-75
2022/09/26 04:44:32;;;;;;;0.10;0.10;;;;;;;6.50;100.00;95722.53;4955966;28;20112;-75
2022/09/26 04:47:18;;;;;;;0.10;0.10;;;;;;;6.42;100.00;95715.78;4941044;28;20424;-75
2022/09/26 04:50:27;;;;;;;0.10;0.10;;;;;;;6.35;100.00;95707.13;4947385;28;20043;-75
2022/09/26 04:53:25;;;;;;;0.20;0.13;;;;;;;6.30;100.00;95708.91;4950700;28;20049;-75
2022/09/26 04:56:24;;;;;;;0.10;0.10;;;;;;;6.23;100.00;95708.25;4946792;28;20078;-75
2022/09/26 04:59:09;;;;;;;0.10;0.10;;;;;;;6.17;100.00;95707.38;4945678;28;20046;-75
2022/09/26 05:02:08;;;;;;;0.10;0.10;;;;;;;6.13;100.00;95703.56;4927623;28;20055;-75
2022/09/26 05:05:02;;;;;;;0.10;0.10;;;;;;;6.08;100.00;95706.94;4941029;28;20050;-75
2022/09/26 05:07:48;;;;;;;0.10;0.10;;;;;;;6.06;100.00;95709.00;4953569;28;20047;-75
2022/09/26 05:10:34;;;;;;;0.10;0.10;;;;;;;6.03;100.00;95698.88;4946958;28;20039;-75
2022/09/26 05:13:25;;;;;;;0.10;0.10;;;;;;;5.99;100.00;95692.44;4935749;28;20523;-75
2022/09/26 05:16:13;;;;;;;0.10;0.10;;;;;;;5.86;100.00;95679.41;4948609;28;20638;-76
2022/09/26 05:18:59;;;;;;;0.10;0.10;;;;;;;5.88;100.00;95694.06;4955139;28;20110;-75
2022/09/26 05:21:46;;;;;;;0.10;0.10;;;;;;;5.87;100.00;95705.72;4947847;28;20213;-75
2022/09/26 05:27:37;;;;;;;0.10;0.10;;;;;;;5.80;100.00;95688.31;4950068;28;20434;-75
2022/09/26 05:30:25;;;;;;;0.10;0.10;;;;;;;5.79;100.00;95686.72;4932390;28;20055;-75
2022/09/26 05:33:12;;;;;;;0.10;0.10;;;;;;;5.78;100.00;95674.47;4949591;28;20105;-75
2022/09/26 05:35:58;;;;;;;0.25;0.20;;;;;;;5.83;100.00;95671.91;4949751;28;20481;-75
2022/09/26 05:38:45;;;;;;;0.10;0.10;;;;;;;5.84;100.00;95668.22;4941569;28;20046;-74
2022/09/26 05:41:32;;;;;;;0.10;0.10;;;;;;;5.88;100.00;95666.69;4948502;28;20363;-74
2022/09/26 05:44:18;;;;;;;0.17;0.10;;;;;;;5.98;100.00;95663.44;4950760;28;20124;-75
2022/09/26 05:47:06;;;;;;;0.10;0.10;;;;;;;6.05;100.00;95667.56;4923591;28;20078;-74
2022/09/26 05:49:53;;;;;;;0.10;0.10;;;;;;;6.09;100.00;95659.94;4939123;28;20576;-75
2022/09/26 05:52:40;;;;;;;0.10;0.10;;;;;;;6.27;100.00;95661.56;4951158;28;20169;-73
2022/09/26 05:55:29;;;;;;;0.10;0.10;;;;;;;6.40;100.00;95656.75;4933538;28;20042;-73
2022/09/26 05:58:54;;;;;;;0.10;0.10;;;;;;;6.66;100.00;95655.28;4897002;29;20044;-74
2022/09/26 06:01:59;;;;;;;0.10;0.10;;;;;;;6.83;100.00;95662.44;4895508;29;20431;-74
2022/09/26 06:05:11;;;;;;;0.10;0.10;;;;;;;7.02;100.00;95655.81;4949466;28;20503;-75
2022/09/26 06:08:00;;;;;;;0.05;0.05;;;;;;;7.20;100.00;95649.38;4949525;28;20089;-76
2022/09/26 06:11:11;;;;;;;0.05;0.05;;;;;;;7.15;100.00;95643.97;4946930;28;20078;-74
2022/09/26 06:13:59;;;;;;;0.10;0.10;;;;;;;7.13;100.00;95641.56;4946518;28;20593;-75
2022/09/26 06:16:45;;;;;;;0.10;0.10;;;;;;;7.02;100.00;95642.50;4935158;28;20285;-75
2022/09/26 06:19:32;;;;;;;0.10;0.10;;;;;;;7.19;100.00;95642.47;4953045;28;20302;-75
2022/09/26 06:22:18;;;;;;;0.10;0.10;;;;;;;7.05;100.00;95638.53;4935594;28;20705;-74
2022/09/26 06:25:04;;;;;;;0.10;0.10;;;;;;;7.05;100.00;95641.19;4952599;28;20046;-75
2022/09/26 06:27:54;;;;;;;0.10;0.10;;;;;;;7.02;100.00;95647.81;4947893;28;20043;-75
2022/09/26 06:30:39;;;;;;;0.10;0.10;;;;;;;7.08;100.00;95638.88;4937509;28;20043;-74
2022/09/26 06:33:31;;;;;;;0.10;0.10;;;;;;;7.11;100.00;95637.56;4923855;28;20042;-75
2022/09/26 06:36:21;;;;;;;0.10;0.10;;;;;;;7.10;100.00;95635.97;4950034;28;20075;-75
2022/09/26 06:39:09;;;;;;;0.10;0.10;;;;;;;6.92;100.00;95637.81;4940106;28;20058;-74
2022/09/26 06:41:56;;;;;;;0.28;0.10;;;;;;;7.13;100.00;95630.94;4940979;28;20125;-75
2022/09/26 06:44:50;;;;;;;0.10;0.10;;;;;;;7.18;100.00;95631.00;4938718;28;20066;-75
2022/09/26 06:47:46;;;;;;;0.10;0.10;;;;;;;7.23;100.00;95623.06;4967165;28;20057;-75
2022/09/26 06:50:51;;;;;;;0.10;0.10;;;;;;;7.22;100.00;95623.31;4953475;28;20049;-75
2022/09/26 06:53:38;;;;;;;0.10;0.10;;;;;;;7.18;100.00;95611.59;4957128;28;20528;-75
2022/09/26 06:56:24;;;;;;;0.20;0.20;;;;;;;7.43;100.00;95611.06;4967103;28;20105;-75
2022/09/26 06:59:11;;;;;;;0.10;0.10;;;;;;;7.12;100.00;95604.56;4968787;28;20161;-75
2022/09/26 07:02:05;;;;;;;0.10;0.10;;;;;;;7.27;100.00;95599.44;4953570;28;20104;-75
2022/09/26 07:05:16;;;;;;;;;;;;;;;7.31;100.00;95597.88;4954434;28;20132;-75
2022/09/26 07:08:11;;;;;;;0.10;0.10;;;;;;;7.24;100.00;95598.09;4952136;28;19918;-76
2022/09/26 07:11:00;;;;;;;0.10;0.10;;;;;;;7.37;100.00;95593.44;4966422;28;20039;-76
2022/09/26 07:13:47;;;;;;;0.10;0.10;;;;;;;7.44;100.00;95584.19;4946670;28;20461;-75
2022/09/26 07:16:33;;;;;;;0.10;0.10;;;;;;;7.47;100.00;95575.72;4966233;28;20101;-76
2022/09/26 07:19:57;;;;;;;0.05;0.05;;;;;;;7.76;100.00;95575.47;4869582;29;20056;-76
2022/09/26 07:23:13;;;;;;;0.10;0.10;;;;;;;7.57;100.00;95571.56;4872318;29;20395;-76
2022/09/26 07:26:01;;;;;;;0.10;0.10;;;;;;;7.57;100.00;95566.25;4951239;28;20086;-76
2022/09/26 07:28:47;;;;;;;0.10;0.10;;;;;;;7.74;100.00;95561.63;4959043;28;20425;-75
2022/09/26 07:31:33;;;;;;;0.10;0.10;;;;;;;7.83;100.00;95560.91;4951710;28;20043;-75
2022/09/26 07:34:42;;;;;;;0.10;0.10;;;;;;;8.12;100.00;95567.81;4967943;28;20042;-75
2022/09/26 07:37:30;;;;;;;0.10;0.10;;;;;;;7.82;100.00;95545.19;4958514;28;20434;-75
2022/09/26 07:40:20;;;;;;;0.10;0.10;;;;;;;8.04;100.00;95551.22;4938100;28;20576;-76
2022/09/26 07:43:07;;;;;;;0.10;0.10;;;;;;;8.14;100.00;95555.03;4969748;28;20050;-76
2022/09/26 07:52:06;;;;;;;0.13;0.10;;;;;;;7.99;100.00;95545.03;4970156;28;20038;-76
2022/09/26 07:55:17;;;;;;;0.10;0.10;;;;;;;7.87;100.00;95547.09;4946241;28;20071;-77
2022/09/26 07:58:30;;;;;;;0.10;0.10;;;;;;;7.97;100.00;95525.84;4969189;28;20257;-76
2022/09/26 08:01:51;;;;;;;0.10;0.10;;;;;;;8.14;100.00;95528.38;4914951;28;20047;-76
2022/09/26 08:04:53;;;;;;;0.10;0.10;;;;;;;8.25;100.00;95527.38;4960292;28;20048;-76
2022/09/26 08:07:40;;;;;;;0.25;0.20;;;;;;;8.54;100.00;95522.53;4955455;28;20176;-76
2022/09/26 08:10:34;;;;;;;0.10;0.10;;;;;;;8.64;100.00;95518.09;4955106;28;20052;-76
2022/09/26 08:13:47;;;;;;;0.10;0.10;;;;;;;8.84;100.00;95521.91;4962923;28;20050;-76
2022/09/26 08:17:08;;;;;;;;;;;;;;;8.64;100.00;95510.09;4940317;28;20627;-76
2022/09/26 08:19:54;;;;;;;0.10;0.10;;;;;;;8.77;100.00;95518.66;4961755;28;19922;-76
2022/09/26 08:22:40;;;;;;;0.10;0.10;;;;;;;8.70;100.00;95524.22;4969789;28;20035;-76
2022/09/26 08:25:26;;;;;;;0.10;0.10;;;;;;;8.93;100.00;95515.00;4954127;28;20735;-76
2022/09/26 08:28:19;;;;;;;0.10;0.10;;;;;;;8.82;100.00;95503.50;4957798;28;20042;-76
2022/09/26 08:31:07;;;;;;;0.10;0.10;;;;;;;9.21;100.00;95503.91;4955917;28;20482;-76
2022/09/26 08:33:53;;;;;;;0.10;0.10;;;;;;;9.64;100.00;95488.50;4958166;28;20050;-76
2022/09/26 08:36:40;;;;;;;0.10;0.10;;;;;;;9.75;100.00;95492.78;4954159;28;20031;-76
2022/09/26 08:39:38;;;;;;;0.10;0.10;;;;;;;10.05;100.00;95483.19;4956762;28;20050;-76
2022/09/26 08:43:15;;;;;;;0.10;0.10;;;;;;;10.13;100.00;95465.81;4972801;28;20073;-76
2022/09/26 08:50:12;;;;;;;0.10;0.10;;;;;;;10.45;100.00;95482.34;4953422;28;20057;-76
2022/09/26 08:53:09;;;;;;;0.10;0.10;;;;;;;10.51;100.00;95462.56;4940715;28;20042;-76
2022/09/26 08:56:12;;;;;;;0.10;0.10;;;;;;;10.92;100.00;95470.44;4957913;28;20417;-77
2022/09/26 08:59:02;;;;;;;0.10;0.10;;;;;;;10.61;100.00;95475.09;4961796;28;20192;-76
2022/09/26 09:01:54;;;;;;;0.10;0.10;;;;;;;10.70;100.00;95470.78;4930589;28;20086;-76
2022/09/26 09:05:00;;;;;;;0.10;0.10;;;;;;;11.22;100.00;95458.78;4958208;28;20767;-76
2022/09/26 09:07:49;;;;;;;0.10;0.10;;;;;;;10.86;100.00;95452.78;4961078;28;20113;-76
2022/09/26 09:10:45;;;;;;;0.10;0.10;;;;;;;10.95;100.00;95455.69;4976638;28;20097;-76
2022/09/26 09:14:18;;;;;;;0.10;0.10;;;;;;;10.90;100.00;95474.47;4965914;28;20035;-76
2022/09/26 09:17:36;;;;;;;0.10;0.10;;;;;;;10.96;100.00;95478.69;4971134;28;20395;-76
2022/09/26 09:20:35;;;;;;;0.10;0.10;;;;;;;11.01;100.00;95476.00;4970402;28;20689;-76
2022/09/26 09:24:08;;;;;;;0.10;0.10;;;;;;;10.86;100.00;95475.00;4962179;28;20051;-76
2022/09/26 09:27:01;;;;;;;0.10;0.10;;;;;;;10.27;100.00;95462.34;4955959;28;20050;-76
2022/09/26 09:30:17;;;;;;;0.10;0.10;;;;;;;10.21;100.00;95463.38;4970654;28;20042;-76
2022/09/26 09:33:44;;;;;;;0.10;0.10;;;;;;;10.31;100.00;95470.59;4922122;28;20505;-76
2022/09/26 09:36:57;;;;;;;0.10;0.10;;;;;;;10.15;100.00;95477.81;4968625;28;20038;-74
2022/09/26 09:40:17;;;;;;;0.10;0.10;;;;;;;10.22;100.00;95482.91;4969803;28;20050;-74
2022/09/26 09:43:29;;;;;;;0.10;0.10;;;;;;;10.30;100.00;95474.34;4969598;28;20057;-75
2022/09/26 09:46:31;;;;;;;0.10;0.10;;;;;;;9.70;100.00;95476.75;4968587;28;20382;-75
2022/09/26 09:49:23;;;;;;;0.10;0.10;;;;;;;10.38;100.00;95467.66;4958046;28;20398;-74
2022/09/26 09:52:37;;;;;;;0.10;0.10;;;;;;;10.28;100.00;95463.13;4965357;28;20109;-74
2022/09/26 09:55:39;;;;;;;0.10;0.10;;;;;;;10.32;100.00;95461.50;4959498;28;20050;-74
2022/09/26 09:58:47;;;;;;;0.10;0.10;;;;;;;9.77;100.00;95463.13;4949664;28;20064;-74
2022/09/26 10:01:41;;;;;;;0.10;0.10;;;;;;;10.02;100.00;95465.00;4955337;28;20046;-75
2022/09/26 10:04:45;;;;;;;0.10;0.10;;;;;;;9.92;100.00;95463.13;4945940;28;20581;-74
2022/09/26 10:07:32;;;;;;;0.10;0.10;;;;;;;10.12;100.00;95446.28;4970880;28;20181;-75
2022/09/26 10:10:41;;;;;;;0.10;0.10;;;;;;;10.02;100.00;95443.59;4970207;28;20050;-75
2022/09/26 10:13:53;;;;;;;0.10;0.10;;;;;;;9.93;100.00;95439.88;4971999;28;20049;-75
2022/09/26 10:17:09;;;;;;;0.10;0.10;;;;;;;10.10;100.00;95439.59;4953236;28;20128;-75
2022/09/26 10:20:02;;;;;;;0.10;0.10;;;;;;;10.10;100.00;95431.56;4961029;28;20461;-74
2022/09/26 10:22:51;;;;;;;0.10;0.10;;;;;;;9.82;100.00;95432.97;4959073;28;20042;-75
2022/09/26 10:25:48;;;;;;;0.10;0.10;;;;;;;10.24;100.00;95428.09;4972920;28;20046;-75
2022/09/26 10:28:43;;;;;;;0.10;0.10;;;;;;;11.00;100.00;95434.25;4615168;28;9999847;-74
2022/09/26 10:31:35;;;;;;;0.10;0.10;;;;;;;10.98;100.00;95433.75;4969847;28;20061;-74
2022/09/26 10:34:34;;;;;;;0.10;0.10;;;;;;;10.76;100.00;95431.44;4968657;28;20039;-74
2022/09/26 10:37:27;;;;;;;0.10;0.10;;;;;;;11.53;100.00;95429.94;4951594;28;20046;-75
2022/09/26 10:40:47;;;;;;;0.10;0.10;;;;;;;11.60;100.00;95426.94;4954120;28;20591;-76
2022/09/26 10:43:37;;;;;;;0.10;0.10;;;;;;;11.85;100.00;95423.28;4966961;28;20042;-75
2022/09/26 10:46:32;;;;;;;0.10;0.10;;;;;;;11.29;100.00;95421.78;4967053;28;20257;-76
2022/09/26 10:50:00;;;;;;;0.10;0.10;;;;;;;11.00;100.00;95413.66;4900219;28;20051;-76
2022/09/26 10:53:10;;;;;;;0.10;0.10;;;;;;;11.03;100.00;95433.69;4968096;28;20668;-76
2022/09/26 10:56:06;;;;;;;0.10;0.10;;;;;;;10.57;100.00;95433.91;4952061;28;20104;-76
2022/09/26 10:58:58;;;;;;;0.10;0.10;;;;;;;10.50;100.00;95436.84;4957400;28;20038;-76
2022/09/26 11:01:50;;;;;;;0.10;0.10;;;;;;;10.51;100.00;95429.66;4948756;28;20472;-73
2022/09/26 11:08:13;;;;;;;0.10;0.10;;;;;;;10.25;100.00;95429.69;4965259;28;20061;-76
2022/09/26 11:11:27;;;;;;;0.10;0.10;;;;;;;10.01;100.00;95434.00;4965300;28;20402;-75
2022/09/26 11:14:24;;;;;;;0.10;0.10;;;;;;;9.84;100.00;95436.16;4967279;28;20096;-76
2022/09/26 11:17:16;;;;;;;0.10;0.10;;;;;;;9.53;100.00;95424.66;4956070;28;20156;-75
2022/09/26 11:20:02;;;;;;;0.10;0.10;;;;;;;9.59;100.00;95429.75;4952770;28;20042;-76
2022/09/26 11:23:21;;;;;;;0.10;0.10;;;;;;;9.88;100.00;95437.19;4953102;28;20046;-75
2022/09/26 11:26:36;;;;;;;0.10;0.10;;;;;;;9.83;100.00;95413.19;4956211;28;20098;-76
2022/09/26 11:29:32;;;;;;;0.10;0.10;;;;;;;9.90;100.00;95416.38;4940034;28;20596;-75
2022/09/26 11:32:47;;;;;;;0.10;0.10;;;;;;;9.39;100.00;95413.69;4953129;28;20490;-75
2022/09/26 11:36:13;;;;;;;0.10;0.10;;;;;;;9.63;100.00;95412.09;4970384;28;20129;-74
2022/09/26 11:39:40;;;;;;;0.10;0.10;;;;;;;10.12;100.00;95397.38;4959485;28;20394;-75
2022/09/26 11:42:41;;;;;;;0.10;0.10;;;;;;;10.11;100.00;95395.75;4968170;28;20133;-75
2022/09/26 11:45:57;;;;;;;0.10;0.10;;;;;;;10.09;100.00;95382.66;4958317;28;20483;-75
2022/09/26 11:49:20;;;;;;;0.10;0.10;;;;;;;9.75;100.00;95385.94;4969269;28;20043;-75
2022/09/26 11:52:49;;;;;;;0.10;0.10;;;;;;;10.42;100.00;95367.06;4895097;29;20386;-75
2022/09/26 11:55:59;;;;;;;0.10;0.10;;;;;;;10.67;100.00;95375.03;4967507;28;20053;-75
2022/09/26 11:59:26;;;;;;;0.10;0.10;;;;;;;10.45;100.00;95367.34;4959736;28;20471;-75
2022/09/26 12:02:32;;;;;;;0.20;0.20;;;;;;;10.20;100.00;95364.75;4967908;28;20188;-76
2022/09/26 12:05:24;;;;;;;0.08;0.08;;;;;;;10.10;100.00;95352.19;4959535;28;20042;-77
2022/09/26 12:08:20;;;;;;;0.10;0.10;;;;;;;9.95;100.00;95360.25;4970525;28;20474;-76
2022/09/26 12:11:21;;;;;;;0.10;0.10;;;;;;;10.00;100.00;95344.19;4968516;28;20307;-76
2022/09/26 12:14:19;;;;;;;0.10;0.10;;;;;;;9.73;100.00;95340.00;4957179;28;20038;-76
2022/09/26 12:17:49;;;;;;;0.10;0.10;;;;;;;9.69;100.00;95346.13;4968738;28;20035;-76
2022/09/26 12:20:59;;;;;;;0.10;0.10;;;;;;;9.75;100.00;95343.19;4952118;28;20070;-76
2022/09/26 12:23:53;;;;;;;0.10;0.10;;;;;;;9.44;100.00;95322.94;4969021;28;20034;-76
2022/09/26 12:26:54;;;;;;;0.08;0.08;;;;;;;9.60;100.00;95316.50;4951726;28;20042;-76
2022/09/26 12:29:53;;;;;;;0.13;0.13;;;;;;;9.49;100.00;95301.53;4958923;28;20053;-76
2022/09/26 12:33:14;;;;;;;0.10;0.10;;;;;;;9.48;100.00;95306.09;4968535;28;20045;-76
2022/09/26 12:36:23;;;;;;;0.10;0.10;;;;;;;9.44;100.00;95298.91;4967929;28;20043;-76
2022/09/26 12:39:32;;;;;;;0.10;0.10;;;;;;;9.39;100.00;95289.00;4956621;28;20312;-76
2022/09/26 12:42:59;;;;;;;0.10;0.10;;;;;;;9.72;100.00;95284.16;4967490;28;20124;-76
2022/09/26 12:45:48;;;;;;;0.10;0.10;;;;;;;9.73;100.00;95269.75;4970390;28;20050;-76
2022/09/26 12:49:02;;;;;;;0.10;0.10;;;;;;;9.52;100.00;95268.97;4969790;28;20510;-76
2022/09/26 12:51:57;;;;;;;0.08;0.08;;;;;;;9.81;100.00;95263.84;4969332;28;20046;-76
2022/09/26 12:55:03;;;;;;;0.10;0.10;;;;;;;9.84;100.00;95254.47;4973146;28;20053;-76
2022/09/26 12:58:20;;;;;;;0.10;0.10;;;;;;;10.19;100.00;95254.31;4961453;28;20155;-76
2022/09/26 13:01:07;;;;;;;0.10;0.10;;;;;;;10.53;100.00;95241.06;4949992;28;20045;-76
2022/09/26 13:04:20;;;;;;;0.10;0.10;;;;;;;10.93;100.00;95236.50;4969927;28;20057;-76
2022/09/26 13:07:12;;;;;;;0.10;0.10;;;;;;;11.21;100.00;95242.97;4967543;28;20044;-76
2022/09/26 13:10:21;;;;;;;0.15;0.15;;;;;;;11.64;100.00;95222.44;4967424;28;20054;-76
2022/09/26 13:13:47;;;;;;;0.10;0.10;;;;;;;10.96;100.00;95209.16;4968578;28;20039;-77
2022/09/26 13:16:42;;;;;;;0.10;0.10;;;;;;;10.73;100.00;95218.72;4967932;28;20251;-77
2022/09/26 13:20:02;;;;;;;0.10;0.10;;;;;;;10.97;100.00;95212.63;4967857;28;20042;-77
2022/09/26 13:22:54;;;;;;;0.10;0.10;;;;;;;10.94;100.00;95199.81;4965374;28;20038;-76
2022/09/26 13:25:47;;;;;;;0.10;0.10;;;;;;;11.11;100.00;95192.97;4968281;28;20039;-77
2022/09/26 13:28:53;;;;;;;0.10;0.10;;;;;;;10.67;100.00;95182.41;4968685;28;20394;-77
2022/09/26 13:31:45;;;;;;;0.10;0.10;;;;;;;10.67;100.00;95187.75;4966742;28;20046;-77
2022/09/26 13:34:43;;;;;;;0.10;0.10;;;;;;;10.62;100.00;95174.41;4970276;28;20291;-76
2022/09/26 13:37:41;;;;;;;0.10;0.10;;;;;;;10.49;100.00;95165.13;4967685;28;20229;-76
2022/09/26 13:40:51;;;;;;;0.10;0.10;;;;;;;10.24;100.00;95162.63;4967448;28;20049;-77
2022/09/26 13:43:52;;;;;;;0.10;0.10;;;;;;;10.49;100.00;95157.09;4971720;28;20050;-76
2022/09/26 13:47:00;;;;;;;0.30;0.20;;;;;;;10.87;100.00;95160.81;4966407;28;20059;-76
2022/09/26 13:50:11;;;;;;;0.10;0.10;;;;;;;11.36;100.00;95167.84;4970590;28;20235;-77
2022/09/26 13:53:31;;;;;;;0.10;0.10;;;;;;;11.35;100.00;95160.06;4968725;28;20174;-77
2022/09/26 13:56:35;;;;;;;0.10;0.10;;;;;;;12.25;100.00;95148.53;4966322;28;20128;-77
2022/09/26 13:59:33;;;;;;;0.10;0.10;;;;;;;11.90;100.00;95137.19;4955978;28;20379;-77
2022/09/26 14:02:28;;;;;;;0.52;0.10;;;;;;;11.83;100.00;95147.50;4958836;28;20728;-77
2022/09/26 14:05:16;;;;;;;0.10;0.10;;;;;;;11.33;100.00;95146.19;4966051;28;20185;-77
2022/09/26 14:11:48;;;;;;;0.10;0.10;;;;;;;11.49;100.00;95130.72;4968891;28;20765;-76
2022/09/26 14:14:49;;;;;;;0.10;0.10;;;;;;;11.44;100.00;95132.41;4969382;28;20042;-76